sensor_id;sensor_type;location;lat;lon;timestamp;pressure;altitude;pressure_sealevel;temperature;humidity
60337;BME280;46978;50.288;28.624;2024-03-02T00:00:10;99414.06;;;2.66;93.67
60337;BME280;46978;50.288;28.624;2024-03-02T00:01:09;99415.76;;;2.64;93.72
60337;BME280;46978;50.288;28.624;2024-03-02T00:02:11;99406.37;;;2.63;93.94
60337;BME280;46978;50.288;28.624;2024-03-02T00:03:13;99415.70;;;2.61;94.10
60337;BME280;46978;50.288;28.624;2024-03-02T00:04:14;99419.96;;;2.59;94.30
60337;BME280;46978;50.288;28.624;2024-03-02T00:05:18;99408.80;;;2.54;94.51
60337;BME280;46978;50.288;28.624;2024-03-02T00:06:20;99419.02;;;2.53;94.69
60337;BME280;46978;50.288;28.624;2024-03-02T00:07:22;99408.70;;;2.48;94.89
60337;BME280;46978;50.288;28.624;2024-03-02T00:08:24;99405.23;;;2.46;95.09
60337;BME280;46978;50.288;28.624;2024-03-02T00:09:26;99403.51;;;2.43;95.28
60337;BME280;46978;50.288;28.624;2024-03-02T00:10:37;99400.05;;;2.41;95.54
60337;BME280;46978;50.288;28.624;2024-03-02T00:11:38;99388.88;;;2.36;95.99
60337;BME280;46978;50.288;28.624;2024-03-02T00:12:40;99388.88;;;2.36;95.99
60337;BME280;46978;50.288;28.624;2024-03-02T00:13:42;99395.70;;;2.36;95.86
60337;BME280;46978;50.288;28.624;2024-03-02T00:14:44;99393.95;;;2.33;95.92
60337;BME280;46978;50.288;28.624;2024-03-02T00:15:47;99390.54;;;2.32;96.03
60337;BME280;46978;50.288;28.624;2024-03-02T00:16:50;99391.34;;;2.30;96.15
60337;BME280;46978;50.288;28.624;2024-03-02T00:17:55;99385.33;;;2.26;96.19
60337;BME280;46978;50.288;28.624;2024-03-02T00:19:02;99395.56;;;2.26;96.17
60337;BME280;46978;50.288;28.624;2024-03-02T00:20:07;99386.15;;;2.25;96.18
60337;BME280;46978;50.288;28.624;2024-03-02T00:21:10;99390.39;;;2.23;96.31
60337;BME280;46978;50.288;28.624;2024-03-02T00:22:12;99388.66;;;2.22;96.24
60337;BME280;46978;50.288;28.624;2024-03-02T00:23:15;99382.69;;;2.22;96.23
60337;BME280;46978;50.288;28.624;2024-03-02T00:25:24;99384.37;;;2.21;96.02
60337;BME280;46978;50.288;28.624;2024-03-02T00:26:26;99391.22;;;2.22;95.97
60337;BME280;46978;50.288;28.624;2024-03-02T00:27:28;99385.25;;;2.22;95.87
60337;BME280;46978;50.288;28.624;2024-03-02T00:28:35;99383.56;;;2.24;95.75
60337;BME280;46978;50.288;28.624;2024-03-02T00:29:37;99383.56;;;2.24;95.63
60337;BME280;46978;50.288;28.624;2024-03-02T00:31:49;99382.73;;;2.25;95.44
60337;BME280;46978;50.288;28.624;2024-03-02T00:32:50;99382.77;;;2.26;95.21
60337;BME280;46978;50.288;28.624;2024-03-02T00:33:53;99375.94;;;2.27;95.10
60337;BME280;46978;50.288;28.624;2024-03-02T00:34:54;99379.34;;;2.27;95.06
60337;BME280;46978;50.288;28.624;2024-03-02T00:35:56;99385.34;;;2.28;94.93
60337;BME280;46978;50.288;28.624;2024-03-02T00:36:58;99384.48;;;2.29;94.84
60337;BME280;46978;50.288;28.624;2024-03-02T00:38:06;99385.38;;;2.29;94.76
60337;BME280;46978;50.288;28.624;2024-03-02T00:39:08;99382.84;;;2.31;94.72
60337;BME280;46978;50.288;28.624;2024-03-02T00:40:11;99386.27;;;2.33;94.47
60337;BME280;46978;50.288;28.624;2024-03-02T00:41:24;99372.64;;;2.34;94.39
60337;BME280;46978;50.288;28.624;2024-03-02T00:42:26;99378.63;;;2.36;94.15
60337;BME280;46978;50.288;28.624;2024-03-02T00:43:40;99376.97;;;2.40;93.81
60337;BME280;46978;50.288;28.624;2024-03-02T00:44:42;99383.00;;;2.42;93.71
60337;BME280;46978;50.288;28.624;2024-03-02T00:45:43;99382.14;;;2.43;93.56
60337;BME280;46978;50.288;28.624;2024-03-02T00:46:45;99382.19;;;2.46;93.35
60337;BME280;46978;50.288;28.624;2024-03-02T00:47:47;99397.58;;;2.47;93.22
60337;BME280;46978;50.288;28.624;2024-03-02T00:48:53;99386.50;;;2.48;93.02
60337;BME280;46978;50.288;28.624;2024-03-02T00:49:55;99389.11;;;2.51;92.83
60337;BME280;46978;50.288;28.624;2024-03-02T00:50:57;99393.42;;;2.54;92.73
60337;BME280;46978;50.288;28.624;2024-03-02T00:51:59;99393.45;;;2.56;92.62
60337;BME280;46978;50.288;28.624;2024-03-02T00:53:01;99397.73;;;2.58;92.53
60337;BME280;46978;50.288;28.624;2024-03-02T00:54:05;99394.37;;;2.61;92.21
60337;BME280;46978;50.288;28.624;2024-03-02T00:55:08;99402.08;;;2.62;92.00
60337;BME280;46978;50.288;28.624;2024-03-02T00:56:11;99397.00;;;2.65;91.72
60337;BME280;46978;50.288;28.624;2024-03-02T00:57:12;99395.30;;;2.67;91.54
60337;BME280;46978;50.288;28.624;2024-03-02T00:58:15;99396.17;;;2.69;91.40
60337;BME280;46978;50.288;28.624;2024-03-02T00:59:17;99391.08;;;2.71;91.04
60337;BME280;46978;50.288;28.624;2024-03-02T01:00:20;99394.54;;;2.73;90.72
60337;BME280;46978;50.288;28.624;2024-03-02T01:01:22;99392.85;;;2.75;90.68
60337;BME280;46978;50.288;28.624;2024-03-02T01:02:23;99393.70;;;2.76;90.70
60337;BME280;46978;50.288;28.624;2024-03-02T01:03:25;99392.05;;;2.78;90.45
60337;BME280;46978;50.288;28.624;2024-03-02T01:04:27;99399.75;;;2.79;90.41
60337;BME280;46978;50.288;28.624;2024-03-02T01:05:28;99398.04;;;2.80;90.43
60337;BME280;46978;50.288;28.624;2024-03-02T01:06:30;99399.77;;;2.81;90.47
60337;BME280;46978;50.288;28.624;2024-03-02T01:07:32;99400.63;;;2.81;90.41
60337;BME280;46978;50.288;28.624;2024-03-02T01:08:37;99398.08;;;2.83;90.33
60337;BME280;46978;50.288;28.624;2024-03-02T01:09:38;99398.08;;;2.83;90.18
60337;BME280;46978;50.288;28.624;2024-03-02T01:10:40;99397.23;;;2.82;90.09
60337;BME280;46978;50.288;28.624;2024-03-02T01:11:42;99395.54;;;2.84;89.77
60337;BME280;46978;50.288;28.624;2024-03-02T01:12:43;99397.30;;;2.87;89.76
60337;BME280;46978;50.288;28.624;2024-03-02T01:13:45;99395.59;;;2.89;89.74
60337;BME280;46978;50.288;28.624;2024-03-02T01:14:47;99395.59;;;2.89;89.58
60337;BME280;46978;50.288;28.624;2024-03-02T01:15:48;99391.34;;;2.91;89.51
60337;BME280;46978;50.288;28.624;2024-03-02T01:16:50;99386.22;;;2.91;88.92
60337;BME280;46978;50.288;28.624;2024-03-02T01:17:52;99382.83;;;2.92;88.88
60337;BME280;46978;50.288;28.624;2024-03-02T01:18:53;99375.98;;;2.93;89.00
60337;BME280;46978;50.288;28.624;2024-03-02T01:19:55;99384.56;;;2.93;89.08
60337;BME280;46978;50.288;28.624;2024-03-02T01:20:57;99383.70;;;2.94;89.05
60337;BME280;46978;50.288;28.624;2024-03-02T01:21:58;99378.57;;;2.94;88.92
60337;BME280;46978;50.288;28.624;2024-03-02T01:23:00;99379.45;;;2.95;88.86
60337;BME280;46978;50.288;28.624;2024-03-02T01:24:01;99380.30;;;2.95;88.95
60337;BME280;46978;50.288;28.624;2024-03-02T01:25:04;99368.34;;;2.96;88.62
60337;BME280;46978;50.288;28.624;2024-03-02T01:26:06;99370.91;;;2.96;88.54
60337;BME280;46978;50.288;28.624;2024-03-02T01:27:07;99375.20;;;2.97;88.28
60337;BME280;46978;50.288;28.624;2024-03-02T01:28:09;99364.92;;;2.95;88.08
60337;BME280;46978;50.288;28.624;2024-03-02T01:29:10;99372.63;;;2.97;88.12
60337;BME280;46978;50.288;28.624;2024-03-02T01:30:12;99375.22;;;2.98;87.88
60337;BME280;46978;50.288;28.624;2024-03-02T01:31:14;99369.23;;;2.98;87.76
60337;BME280;46978;50.288;28.624;2024-03-02T01:32:16;99372.66;;;2.98;87.94
60337;BME280;46978;50.288;28.624;2024-03-02T01:33:18;99366.67;;;2.98;87.98
60337;BME280;46978;50.288;28.624;2024-03-02T01:34:20;99379.52;;;2.99;88.12
60337;BME280;46978;50.288;28.624;2024-03-02T01:35:22;99369.26;;;2.99;88.08
60337;BME280;46978;50.288;28.624;2024-03-02T01:36:23;99364.13;;;2.99;88.16
60337;BME280;46978;50.288;28.624;2024-03-02T01:37:25;99368.39;;;3.00;88.23
60337;BME280;46978;50.288;28.624;2024-03-02T01:38:26;99358.14;;;3.00;88.10
60337;BME280;46978;50.288;28.624;2024-03-02T01:39:28;99360.70;;;3.00;87.79
60337;BME280;46978;50.288;28.624;2024-03-02T01:40:30;99365.00;;;3.01;87.60
60337;BME280;46978;50.288;28.624;2024-03-02T01:41:31;99370.13;;;3.01;87.46
60337;BME280;46978;50.288;28.624;2024-03-02T01:42:33;99366.72;;;3.01;87.39
60337;BME280;46978;50.288;28.624;2024-03-02T01:43:34;99366.72;;;3.01;87.08
60337;BME280;46978;50.288;28.624;2024-03-02T01:44:36;99369.28;;;3.01;86.76
60337;BME280;46978;50.288;28.624;2024-03-02T01:45:38;99378.67;;;3.02;86.85
60337;BME280;46978;50.288;28.624;2024-03-02T01:46:40;99371.86;;;3.02;86.74
60337;BME280;46978;50.288;28.624;2024-03-02T01:47:41;99364.17;;;3.02;86.40
60337;BME280;46978;50.288;28.624;2024-03-02T01:48:43;99372.73;;;3.04;86.31
60337;BME280;46978;50.288;28.624;2024-03-02T01:49:44;99367.58;;;3.03;86.10
60337;BME280;46978;50.288;28.624;2024-03-02T01:50:46;99370.15;;;3.03;86.04
60337;BME280;46978;50.288;28.624;2024-03-02T01:51:48;99365.04;;;3.04;85.95
60337;BME280;46978;50.288;28.624;2024-03-02T01:52:49;99367.60;;;3.04;85.94
60337;BME280;46978;50.288;28.624;2024-03-02T01:53:51;99365.04;;;3.04;85.94
60337;BME280;46978;50.288;28.624;2024-03-02T01:54:53;99370.16;;;3.04;85.74
60337;BME280;46978;50.288;28.624;2024-03-02T01:55:54;99364.20;;;3.05;85.72
60337;BME280;46978;50.288;28.624;2024-03-02T01:56:56;99360.77;;;3.05;85.61
60337;BME280;46978;50.288;28.624;2024-03-02T01:57:58;99370.19;;;3.06;85.43
60337;BME280;46978;50.288;28.624;2024-03-02T01:59:00;99359.08;;;3.05;85.49
60337;BME280;46978;50.288;28.624;2024-03-02T02:00:02;99355.63;;;3.05;85.22
60337;BME280;46978;50.288;28.624;2024-03-02T02:01:03;99360.77;;;3.05;85.31
60337;BME280;46978;50.288;28.624;2024-03-02T02:02:05;99362.49;;;3.06;85.34
60337;BME280;46978;50.288;28.624;2024-03-02T02:03:07;99358.20;;;3.05;85.50
60337;BME280;46978;50.288;28.624;2024-03-02T02:04:08;99359.08;;;3.05;85.53
60337;BME280;46978;50.288;28.624;2024-03-02T02:05:10;99361.64;;;3.05;85.41
60337;BME280;46978;50.288;28.624;2024-03-02T02:06:12;99366.77;;;3.05;85.25
60337;BME280;46978;50.288;28.624;2024-03-02T02:07:14;99360.78;;;3.07;85.23
60337;BME280;46978;50.288;28.624;2024-03-02T02:08:16;99363.34;;;3.07;85.24
60337;BME280;46978;50.288;28.624;2024-03-02T02:09:18;99364.23;;;3.07;84.96
60337;BME280;46978;50.288;28.624;2024-03-02T02:10:20;99361.66;;;3.07;85.05
60337;BME280;46978;50.288;28.624;2024-03-02T02:11:22;99370.20;;;3.08;84.99
60337;BME280;46978;50.288;28.624;2024-03-02T02:12:23;99365.08;;;3.08;84.79
60337;BME280;46978;50.288;28.624;2024-03-02T02:13:25;99365.92;;;3.08;84.79
60337;BME280;46978;50.288;28.624;2024-03-02T02:14:26;99368.49;;;3.08;84.74
60337;BME280;46978;50.288;28.624;2024-03-02T02:15:29;99361.69;;;3.09;84.52
60337;BME280;46978;50.288;28.624;2024-03-02T02:16:31;99359.12;;;3.09;84.49
60337;BME280;46978;50.288;28.624;2024-03-02T02:17:33;99356.52;;;3.05;84.54
60337;BME280;46978;50.288;28.624;2024-03-02T02:18:35;99354.82;;;3.08;84.67
60337;BME280;46978;50.288;28.624;2024-03-02T02:19:36;99349.67;;;3.06;84.67
60337;BME280;46978;50.288;28.624;2024-03-02T02:20:38;99355.67;;;3.08;84.52
60337;BME280;46978;50.288;28.624;2024-03-02T02:21:42;99353.98;;;3.09;84.29
60337;BME280;46978;50.288;28.624;2024-03-02T02:24:04;99358.25;;;3.10;84.34
60337;BME280;46978;50.288;28.624;2024-03-02T02:25:06;99351.45;;;3.10;84.44
60337;BME280;46978;50.288;28.624;2024-03-02T02:26:08;99357.41;;;3.09;84.39
60337;BME280;46978;50.288;28.624;2024-03-02T02:27:10;99359.98;;;3.11;84.33
60337;BME280;46978;50.288;28.624;2024-03-02T02:28:11;99359.13;;;3.10;84.32
60337;BME280;46978;50.288;28.624;2024-03-02T02:29:13;99357.42;;;3.11;84.22
60337;BME280;46978;50.288;28.624;2024-03-02T02:30:21;99355.70;;;3.11;84.20
60337;BME280;46978;50.288;28.624;2024-03-02T02:31:23;99361.72;;;3.12;84.11
60337;BME280;46978;50.288;28.624;2024-03-02T02:32:24;99357.44;;;3.12;83.97
60337;BME280;46978;50.288;28.624;2024-03-02T02:33:26;99360.86;;;3.13;83.91
60337;BME280;46978;50.288;28.624;2024-03-02T02:34:28;99360.87;;;3.14;83.96
60337;BME280;46978;50.288;28.624;2024-03-02T02:35:29;99364.31;;;3.15;83.93
60337;BME280;46978;50.288;28.624;2024-03-02T02:36:33;99361.73;;;3.13;83.77
60337;BME280;46978;50.288;28.624;2024-03-02T02:37:35;99369.45;;;3.15;83.82
60337;BME280;46978;50.288;28.624;2024-03-02T02:38:39;99364.31;;;3.15;83.57
60337;BME280;46978;50.288;28.624;2024-03-02T02:39:41;99364.31;;;3.15;83.27
60337;BME280;46978;50.288;28.624;2024-03-02T02:40:43;99366.00;;;3.14;83.40
60337;BME280;46978;50.288;28.624;2024-03-02T02:41:45;99372.86;;;3.15;83.49
60337;BME280;46978;50.288;28.624;2024-03-02T02:42:47;99363.45;;;3.16;83.58
60337;BME280;46978;50.288;28.624;2024-03-02T02:43:49;99367.73;;;3.15;83.23
60337;BME280;46978;50.288;28.624;2024-03-02T02:44:50;99364.34;;;3.16;83.27
60337;BME280;46978;50.288;28.624;2024-03-02T02:45:52;99362.63;;;3.17;83.18
60337;BME280;46978;50.288;28.624;2024-03-02T02:46:54;99366.90;;;3.16;83.39
60337;BME280;46978;50.288;28.624;2024-03-02T02:47:55;99366.03;;;3.17;83.93
60337;BME280;46978;50.288;28.624;2024-03-02T02:48:57;99366.03;;;3.17;84.39
60337;BME280;46978;50.288;28.624;2024-03-02T02:49:58;99363.45;;;3.16;84.79
60337;BME280;46978;50.288;28.624;2024-03-02T02:51:00;99359.19;;;3.15;85.08
60337;BME280;46978;50.288;28.624;2024-03-02T02:52:01;99355.73;;;3.13;85.32
60337;BME280;46978;50.288;28.624;2024-03-02T02:53:03;99362.57;;;3.12;85.54
60337;BME280;46978;50.288;28.624;2024-03-02T02:54:05;99353.13;;;3.10;85.81
60337;BME280;46978;50.288;28.624;2024-03-02T02:55:12;99351.41;;;3.07;85.80
60337;BME280;46978;50.288;28.624;2024-03-02T02:56:11;99357.37;;;3.06;86.02
60337;BME280;46978;50.288;28.624;2024-03-02T02:57:13;99356.50;;;3.04;86.22
60337;BME280;46978;50.288;28.624;2024-03-02T02:58:14;99354.77;;;3.03;86.10
60337;BME280;46978;50.288;28.624;2024-03-02T02:59:16;99347.89;;;3.00;86.18
60337;BME280;46978;50.288;28.624;2024-03-02T03:00:18;99346.19;;;2.99;86.25
60337;BME280;46978;50.288;28.624;2024-03-02T03:01:20;99352.15;;;2.98;86.36
60337;BME280;46978;50.288;28.624;2024-03-02T03:02:22;99356.41;;;2.96;86.48
60337;BME280;46978;50.288;28.624;2024-03-02T03:03:23;99352.11;;;2.95;86.54
60337;BME280;46978;50.288;28.624;2024-03-02T03:04:25;99353.82;;;2.95;86.48
60337;BME280;46978;50.288;28.624;2024-03-02T03:05:26;99348.67;;;2.93;86.47
60337;BME280;46978;50.288;28.624;2024-03-02T03:06:28;99346.11;;;2.93;86.46
60337;BME280;46978;50.288;28.624;2024-03-02T03:07:29;99350.36;;;2.93;86.56
60337;BME280;46978;50.288;28.624;2024-03-02T03:08:31;99342.65;;;2.91;86.64
60337;BME280;46978;50.288;28.624;2024-03-02T03:09:33;99342.62;;;2.90;86.53
60337;BME280;46978;50.288;28.624;2024-03-02T03:10:35;99344.32;;;2.87;86.64
60337;BME280;46978;50.288;28.624;2024-03-02T03:11:36;99352.03;;;2.89;86.62
60337;BME280;46978;50.288;28.624;2024-03-02T03:12:38;99346.91;;;2.89;86.66
60337;BME280;46978;50.288;28.624;2024-03-02T03:13:39;99350.30;;;2.88;86.70
60337;BME280;46978;50.288;28.624;2024-03-02T03:14:41;99348.62;;;2.89;86.75
60337;BME280;46978;50.288;28.624;2024-03-02T03:15:42;99350.30;;;2.88;86.85
60337;BME280;46978;50.288;28.624;2024-03-02T03:16:46;99351.14;;;2.85;86.85
60337;BME280;46978;50.288;28.624;2024-03-02T03:17:47;99347.70;;;2.85;86.89
60337;BME280;46978;50.288;28.624;2024-03-02T03:18:49;99348.58;;;2.85;86.97
60337;BME280;46978;50.288;28.624;2024-03-02T03:19:51;99349.43;;;2.86;87.00
60337;BME280;46978;50.288;28.624;2024-03-02T03:20:52;99351.97;;;2.84;87.17
60337;BME280;46978;50.288;28.624;2024-03-02T03:21:54;99340.88;;;2.84;87.29
60337;BME280;46978;50.288;28.624;2024-03-02T03:22:59;99344.28;;;2.84;87.29
60337;BME280;46978;50.288;28.624;2024-03-02T03:24:00;99346.00;;;2.84;87.34
60337;BME280;46978;50.288;28.624;2024-03-02T03:25:02;99344.27;;;2.83;87.33
60337;BME280;46978;50.288;28.624;2024-03-02T03:26:04;99344.27;;;2.83;87.33
60337;BME280;46978;50.288;28.624;2024-03-02T03:27:06;99344.27;;;2.83;87.43
60337;BME280;46978;50.288;28.624;2024-03-02T03:28:08;99349.41;;;2.84;87.46
60337;BME280;46978;50.288;28.624;2024-03-02T03:29:09;99341.72;;;2.84;87.42
60337;BME280;46978;50.288;28.624;2024-03-02T03:30:12;99342.55;;;2.83;87.46
60337;BME280;46978;50.288;28.624;2024-03-02T03:31:13;99342.57;;;2.85;87.48
60337;BME280;46978;50.288;28.624;2024-03-02T03:32:15;99343.44;;;2.84;87.44
60337;BME280;46978;50.288;28.624;2024-03-02T03:33:16;99341.72;;;2.84;87.30
60337;BME280;46978;50.288;28.624;2024-03-02T03:34:18;99343.45;;;2.85;87.20
60337;BME280;46978;50.288;28.624;2024-03-02T03:35:20;99334.86;;;2.83;87.30
60337;BME280;46978;50.288;28.624;2024-03-02T03:36:21;99332.32;;;2.85;87.22
60337;BME280;46978;50.288;28.624;2024-03-02T03:37:23;99339.16;;;2.84;87.16
60337;BME280;46978;50.288;28.624;2024-03-02T03:38:24;99339.16;;;2.84;87.23
60337;BME280;46978;50.288;28.624;2024-03-02T03:39:26;99334.88;;;2.85;87.10
60337;BME280;46978;50.288;28.624;2024-03-02T03:40:27;99343.45;;;2.85;86.89
60337;BME280;46978;50.288;28.624;2024-03-02T03:41:29;99339.16;;;2.84;86.87
60337;BME280;46978;50.288;28.624;2024-03-02T03:42:31;99340.03;;;2.86;86.95
60337;BME280;46978;50.288;28.624;2024-03-02T03:43:32;99343.47;;;2.87;86.83
60337;BME280;46978;50.288;28.624;2024-03-02T03:44:34;99340.05;;;2.88;86.77
60337;BME280;46978;50.288;28.624;2024-03-02T03:45:35;99340.06;;;2.90;86.65
60337;BME280;46978;50.288;28.624;2024-03-02T03:46:37;99345.19;;;2.90;86.30
60337;BME280;46978;50.288;28.624;2024-03-02T03:47:39;99344.36;;;2.91;86.11
60337;BME280;46978;50.288;28.624;2024-03-02T03:48:40;99344.36;;;2.91;86.25
60337;BME280;46978;50.288;28.624;2024-03-02T03:49:42;99346.09;;;2.92;86.34
60337;BME280;46978;50.288;28.624;2024-03-02T03:50:44;99343.53;;;2.92;86.31
60337;BME280;46978;50.288;28.624;2024-03-02T03:51:45;99339.23;;;2.91;86.25
60337;BME280;46978;50.288;28.624;2024-03-02T03:52:47;99337.50;;;2.90;86.29
60337;BME280;46978;50.288;28.624;2024-03-02T03:54:08;99345.21;;;2.91;86.21
60337;BME280;46978;50.288;28.624;2024-03-02T03:55:10;99342.62;;;2.90;86.19
60337;BME280;46978;50.288;28.624;2024-03-02T03:56:11;99338.39;;;2.90;86.35
60337;BME280;46978;50.288;28.624;2024-03-02T03:57:13;99343.52;;;2.90;86.39
60337;BME280;46978;50.288;28.624;2024-03-02T03:58:15;99334.94;;;2.90;86.19
60337;BME280;46978;50.288;28.624;2024-03-02T03:59:17;99338.39;;;2.90;86.13
60337;BME280;46978;50.288;28.624;2024-03-02T04:00:18;99338.41;;;2.92;86.16
60337;BME280;46978;50.288;28.624;2024-03-02T04:01:20;99338.41;;;2.92;86.21
60337;BME280;46978;50.288;28.624;2024-03-02T04:02:22;99342.65;;;2.91;86.24
60337;BME280;46978;50.288;28.624;2024-03-02T04:03:23;99344.36;;;2.91;86.06
60337;BME280;46978;50.288;28.624;2024-03-02T04:04:25;99340.97;;;2.92;86.00
60337;BME280;46978;50.288;28.624;2024-03-02T04:05:26;99341.81;;;2.92;86.02
60337;BME280;46978;50.288;28.624;2024-03-02T04:06:28;99338.42;;;2.93;86.10
60337;BME280;46978;50.288;28.624;2024-03-02T04:07:30;99340.09;;;2.91;85.98
60337;BME280;46978;50.288;28.624;2024-03-02T04:08:32;99348.66;;;2.92;86.07
60337;BME280;46978;50.288;28.624;2024-03-02T04:09:33;99341.80;;;2.91;85.90
60337;BME280;46978;50.288;28.624;2024-03-02T04:10:35;99339.25;;;2.92;86.00
60337;BME280;46978;50.288;28.624;2024-03-02T04:11:36;99351.23;;;2.93;86.01
60337;BME280;46978;50.288;28.624;2024-03-02T04:12:38;99352.92;;;2.93;85.95
60337;BME280;46978;50.288;28.624;2024-03-02T04:13:39;99343.53;;;2.92;85.99
60337;BME280;46978;50.288;28.624;2024-03-02T04:14:41;99351.23;;;2.93;85.88
60337;BME280;46978;50.288;28.624;2024-03-02T04:15:43;99347.80;;;2.93;85.83
60337;BME280;46978;50.288;28.624;2024-03-02T04:16:44;99352.92;;;2.93;85.82
60337;BME280;46978;50.288;28.624;2024-03-02T04:17:46;99350.36;;;2.93;85.73
60337;BME280;46978;50.288;28.624;2024-03-02T04:18:47;99357.22;;;2.94;85.66
60337;BME280;46978;50.288;28.624;2024-03-02T04:19:49;99356.36;;;2.93;85.34
60337;BME280;46978;50.288;28.624;2024-03-02T04:20:51;99353.80;;;2.93;85.24
60337;BME280;46978;50.288;28.624;2024-03-02T04:21:52;99354.63;;;2.92;85.24
60337;BME280;46978;50.288;28.624;2024-03-02T04:22:54;99346.94;;;2.92;85.34
60337;BME280;46978;50.288;28.624;2024-03-02T04:23:55;99358.05;;;2.93;85.47
60337;BME280;46978;50.288;28.624;2024-03-02T04:24:57;99350.36;;;2.93;85.58
60337;BME280;46978;50.288;28.624;2024-03-02T04:25:58;99345.23;;;2.93;85.70
60337;BME280;46978;50.288;28.624;2024-03-02T04:27:00;99346.96;;;2.94;85.64
60337;BME280;46978;50.288;28.624;2024-03-02T04:28:02;99343.55;;;2.93;85.55
60337;BME280;46978;50.288;28.624;2024-03-02T04:29:04;99350.38;;;2.94;85.56
60337;BME280;46978;50.288;28.624;2024-03-02T04:30:06;99346.13;;;2.95;85.15
60337;BME280;46978;50.288;28.624;2024-03-02T04:31:08;99347.81;;;2.94;85.20
60337;BME280;46978;50.288;28.624;2024-03-02T04:32:10;99344.42;;;2.95;85.13
60337;BME280;46978;50.288;28.624;2024-03-02T04:33:11;99343.55;;;2.93;84.88
60337;BME280;46978;50.288;28.624;2024-03-02T04:34:13;99345.25;;;2.94;84.89
60337;BME280;46978;50.288;28.624;2024-03-02T04:35:14;99347.81;;;2.94;84.86
60337;BME280;46978;50.288;28.624;2024-03-02T04:36:16;99346.11;;;2.93;84.62
60337;BME280;46978;50.288;28.624;2024-03-02T04:37:18;99345.23;;;2.93;84.67
60337;BME280;46978;50.288;28.624;2024-03-02T04:38:39;99347.80;;;2.93;84.76
60337;BME280;46978;50.288;28.624;2024-03-02T04:39:41;99341.81;;;2.92;84.94
60337;BME280;46978;50.288;28.624;2024-03-02T04:40:42;99341.81;;;2.92;85.10
60337;BME280;46978;50.288;28.624;2024-03-02T04:41:44;99340.11;;;2.93;84.80
60337;BME280;46978;50.288;28.624;2024-03-02T04:42:45;99344.38;;;2.92;84.32
60337;BME280;46978;50.288;28.624;2024-03-02T04:43:47;99349.51;;;2.92;84.32
60337;BME280;46978;50.288;28.624;2024-03-02T04:44:49;99347.80;;;2.93;84.39
60337;BME280;46978;50.288;28.624;2024-03-02T04:45:50;99344.38;;;2.92;84.25
60337;BME280;46978;50.288;28.624;2024-03-02T04:46:52;99342.65;;;2.91;84.19
60337;BME280;46978;50.288;28.624;2024-03-02T04:47:53;99342.65;;;2.91;84.38
60337;BME280;46978;50.288;28.624;2024-03-02T04:48:55;99342.67;;;2.93;84.38
60337;BME280;46978;50.288;28.624;2024-03-02T04:49:57;99338.45;;;2.95;84.22
60337;BME280;46978;50.288;28.624;2024-03-02T04:50:59;99344.42;;;2.95;84.18
60337;BME280;46978;50.288;28.624;2024-03-02T04:52:00;99346.16;;;2.96;84.26
60337;BME280;46978;50.288;28.624;2024-03-02T04:53:02;99350.41;;;2.97;84.26
60337;BME280;46978;50.288;28.624;2024-03-02T04:54:03;99351.30;;;2.98;84.09
60337;BME280;46978;50.288;28.624;2024-03-02T04:55:05;99353.00;;;2.99;84.03
60337;BME280;46978;50.288;28.624;2024-03-02T04:56:07;99353.87;;;2.99;83.72
60337;BME280;46978;50.288;28.624;2024-03-02T04:57:09;99351.31;;;2.99;83.73
60337;BME280;46978;50.288;28.624;2024-03-02T04:58:10;99348.75;;;2.99;83.75
60337;BME280;46978;50.288;28.624;2024-03-02T04:59:12;99350.44;;;2.99;83.78
60337;BME280;46978;50.288;28.624;2024-03-02T05:00:14;99349.60;;;3.00;83.74
60337;BME280;46978;50.288;28.624;2024-03-02T05:01:16;99355.59;;;3.02;83.76
60337;BME280;46978;50.288;28.624;2024-03-02T05:02:19;99349.62;;;3.01;83.80
60337;BME280;46978;50.288;28.624;2024-03-02T05:03:20;99352.19;;;3.01;83.66
60337;BME280;46978;50.288;28.624;2024-03-02T05:04:22;99356.50;;;3.04;83.54
60337;BME280;46978;50.288;28.624;2024-03-02T05:05:23;99353.94;;;3.04;83.23
60337;BME280;46978;50.288;28.624;2024-03-02T05:06:25;99351.38;;;3.04;83.37
60337;BME280;46978;50.288;28.624;2024-03-02T05:07:26;99351.38;;;3.04;83.42
60337;BME280;46978;50.288;28.624;2024-03-02T05:08:28;99354.80;;;3.06;83.45
60337;BME280;46978;50.288;28.624;2024-03-02T05:09:29;99349.70;;;3.08;83.42
60337;BME280;46978;50.288;28.624;2024-03-02T05:10:31;99353.97;;;3.07;83.44
60337;BME280;46978;50.288;28.624;2024-03-02T05:11:33;99349.70;;;3.08;83.46
60337;BME280;46978;50.288;28.624;2024-03-02T05:12:34;99347.15;;;3.09;83.59
60337;BME280;46978;50.288;28.624;2024-03-02T05:13:36;99352.30;;;3.11;83.62
60337;BME280;46978;50.288;28.624;2024-03-02T05:14:38;99351.46;;;3.12;83.51
60337;BME280;46978;50.288;28.624;2024-03-02T05:15:39;99355.70;;;3.11;83.52
60337;BME280;46978;50.288;28.624;2024-03-02T05:16:41;99354.89;;;3.14;83.29
60337;BME280;46978;50.288;28.624;2024-03-02T05:17:43;99354.06;;;3.15;83.07
60337;BME280;46978;50.288;28.624;2024-03-02T05:18:44;99352.34;;;3.15;82.93
60337;BME280;46978;50.288;28.624;2024-03-02T05:19:46;99355.77;;;3.16;82.84
60337;BME280;46978;50.288;28.624;2024-03-02T05:20:47;99353.22;;;3.17;83.00
60337;BME280;46978;50.288;28.624;2024-03-02T05:21:49;99349.80;;;3.17;82.88
60337;BME280;46978;50.288;28.624;2024-03-02T05:22:50;99349.82;;;3.18;82.85
60337;BME280;46978;50.288;28.624;2024-03-02T05:23:52;99354.11;;;3.19;82.87
60337;BME280;46978;50.288;28.624;2024-03-02T05:24:53;99354.97;;;3.20;82.89
60337;BME280;46978;50.288;28.624;2024-03-02T05:25:55;99345.56;;;3.20;82.85
60337;BME280;46978;50.288;28.624;2024-03-02T05:26:57;99354.98;;;3.21;82.38
60337;BME280;46978;50.288;28.624;2024-03-02T05:27:58;99357.55;;;3.21;82.40
60337;BME280;46978;50.288;28.624;2024-03-02T05:29:00;99354.16;;;3.22;82.21
60337;BME280;46978;50.288;28.624;2024-03-02T05:30:02;99355.00;;;3.23;81.87
60337;BME280;46978;50.288;28.624;2024-03-02T05:31:04;99358.44;;;3.25;81.83
60337;BME280;46978;50.288;28.624;2024-03-02T05:32:06;99357.56;;;3.23;81.87